ADDS METAR Data

Data at: 0508 UTC 19 Jan 2018

METAR for:KCQX (Chatham Muni, MA, US)
Text:KCQX 190452Z AUTO 29004KT 10SM OVC031 M02/M06 A2992 RMK AO2 SLP135 T10171056 400111017 TSNO
Temperature: -1.7°C ( 29°F)
Dewpoint: -5.6°C ( 22°F) [RH = 75%]
Pressure (altimeter):29.92 inches Hg (1013.3 mb) [Sea level pressure: 1013.5 mb]
Winds:from the WNW (290 degrees) at 5 MPH (4 knots; 2.1 m/s)
Visibility:10 or more sm (16+ km)
Ceiling:3100 feet AGL
Clouds: overcast cloud deck at 3100 feet AGL
QC Flag:automated observation with no human augmentation